Time;durP1;ratioP1;P1;durP2;ratioP2;P2;SDS_P1;SDS_P2;PMS_P1;PMS_P2;Temp;Humidity;BMP_temperature;BMP_pressure;BME280_temperature;BME280_humidity;BME280_pressure;Samples;Min_cycle;Max_cycle;Signal;HPM_P1;HPM_P2
2021/07/02 00:01:51;;;;;;;21.60;6.07;;;;;;;;;;5064924;28;20076;-60
2021/07/02 00:04:18;;;;;;;14.73;5.80;;;;;;;;;;5061591;28;20044;-60
2021/07/02 00:06:44;;;;;;;14.73;5.60;;;;;;;;;;5065576;28;20036;-60
2021/07/02 00:09:11;;;;;;;22.40;6.20;;;;;;;;;;5063537;28;20052;-59
2021/07/02 00:11:40;;;;;;;16.17;5.70;;;;;;;;;;5076347;28;20032;-60
2021/07/02 00:14:06;;;;;;;13.90;5.45;;;;;;;;;;5084199;28;20040;-59
2021/07/02 00:16:34;;;;;;;18.17;6.07;;;;;;;;;;5078026;28;20048;-59
2021/07/02 00:19:02;;;;;;;19.42;5.63;;;;;;;;;;5083048;28;20040;-60
2021/07/02 00:21:29;;;;;;;15.60;5.53;;;;;;;;;;5065282;28;20040;-59
2021/07/02 00:23:55;;;;;;;15.48;5.30;;;;;;;;;;5064734;28;20275;-59
2021/07/02 00:26:22;;;;;;;21.17;5.97;;;;;;;;;;5060413;28;20097;-60
2021/07/02 00:28:49;;;;;;;19.95;5.50;;;;;;;;;;5064504;28;20048;-60
2021/07/02 00:31:17;;;;;;;16.95;5.50;;;;;;;;;;5059058;28;20052;-59
2021/07/02 00:33:44;;;;;;;16.33;5.80;;;;;;;;;;5059120;28;20052;-60
2021/07/02 00:36:12;;;;;;;13.95;5.05;;;;;;;;;;5057707;28;20081;-62
2021/07/02 00:38:38;;;;;;;14.97;5.03;;;;;;;;;;5060656;28;20033;-59
2021/07/02 00:41:06;;;;;;;16.63;5.15;;;;;;;;;;5062358;28;20299;-59
2021/07/02 00:43:32;;;;;;;13.07;5.13;;;;;;;;;;5081226;28;20052;-60
2021/07/02 00:45:59;;;;;;;14.52;5.50;;;;;;;;;;5074166;28;20040;-60
2021/07/02 00:48:26;;;;;;;16.40;5.53;;;;;;;;;;5062353;28;20040;-60
2021/07/02 00:50:52;;;;;;;14.73;5.22;;;;;;;;;;5060764;28;20037;-60
2021/07/02 00:53:22;;;;;;;19.55;6.20;;;;;;;;;;5057753;28;20175;-59
2021/07/02 00:55:51;;;;;;;19.08;7.65;;;;;;;;;;5062531;28;20045;-59
2021/07/02 00:58:19;;;;;;;20.10;7.10;;;;;;;;;;5074087;28;20044;-60
2021/07/02 01:00:45;;;;;;;18.10;6.50;;;;;;;;;;5082289;28;20040;-60
2021/07/02 01:03:13;;;;;;;19.45;5.97;;;;;;;;;;5061915;28;20048;-61
2021/07/02 01:05:39;;;;;;;13.47;5.47;;;;;;;;;;5061763;28;20044;-60
2021/07/02 01:08:06;;;;;;;17.92;6.60;;;;;;;;;;5059001;28;20285;-60
2021/07/02 01:10:36;;;;;;;15.63;6.30;;;;;;;;;;5059672;28;20044;-59
2021/07/02 01:13:03;;;;;;;19.83;6.90;;;;;;;;;;5058562;28;20097;-59
2021/07/02 01:15:29;;;;;;;17.70;5.97;;;;;;;;;;5063729;28;20088;-59
2021/07/02 01:17:56;;;;;;;16.38;6.03;;;;;;;;;;5057606;28;20114;-60
2021/07/02 01:20:22;;;;;;;17.13;6.25;;;;;;;;;;5060131;28;20171;-60
2021/07/02 01:22:51;;;;;;;15.82;6.30;;;;;;;;;;5056200;28;20040;-59
2021/07/02 01:25:17;;;;;;;19.58;6.63;;;;;;;;;;5060653;28;20060;-59
2021/07/02 01:27:44;;;;;;;16.73;6.18;;;;;;;;;;5058060;28;20036;-60
2021/07/02 01:30:11;;;;;;;18.58;6.38;;;;;;;;;;5081324;28;20052;-60
2021/07/02 01:32:38;;;;;;;19.05;7.18;;;;;;;;;;5079070;28;20044;-60
2021/07/02 01:35:05;;;;;;;20.45;6.07;;;;;;;;;;5078407;28;20048;-60
2021/07/02 01:37:31;;;;;;;21.23;6.38;;;;;;;;;;5062413;28;20033;-60
2021/07/02 01:39:59;;;;;;;19.52;6.75;;;;;;;;;;5061828;28;20039;-59
2021/07/02 01:42:27;;;;;;;17.70;7.13;;;;;;;;;;5064205;28;20029;-60
2021/07/02 01:44:54;;;;;;;16.42;6.13;;;;;;;;;;5059757;28;20411;-59
2021/07/02 01:47:20;;;;;;;20.70;6.68;;;;;;;;;;5062328;28;20036;-60
2021/07/02 01:49:48;;;;;;;19.88;6.45;;;;;;;;;;5073696;28;20113;-60
2021/07/02 01:52:16;;;;;;;15.88;6.45;;;;;;;;;;5083731;28;20050;-60
2021/07/02 01:54:43;;;;;;;16.45;6.32;;;;;;;;;;5068655;28;20043;-60
2021/07/02 01:57:12;;;;;;;14.32;6.15;;;;;;;;;;5063517;28;20044;-60
2021/07/02 01:59:38;;;;;;;20.02;6.55;;;;;;;;;;5059656;28;20047;-60
2021/07/02 02:02:06;;;;;;;16.25;6.75;;;;;;;;;;5063952;28;20047;-60
2021/07/02 02:04:32;;;;;;;20.35;6.57;;;;;;;;;;5060148;28;20044;-60
2021/07/02 02:06:59;;;;;;;15.32;6.70;;;;;;;;;;5080823;28;20044;-60
2021/07/02 02:09:25;;;;;;;23.40;6.00;;;;;;;;;;5052280;28;20197;-61
2021/07/02 02:11:53;;;;;;;13.90;6.22;;;;;;;;;;5069185;28;20045;-59
2021/07/02 02:14:21;;;;;;;16.92;6.50;;;;;;;;;;5061091;28;20050;-60
2021/07/02 02:16:48;;;;;;;15.65;5.70;;;;;;;;;;5083562;28;20101;-59
2021/07/02 02:19:14;;;;;;;13.27;5.90;;;;;;;;;;5083928;28;20055;-60
2021/07/02 02:21:41;;;;;;;16.00;5.93;;;;;;;;;;5061056;28;20048;-60
2021/07/02 02:24:07;;;;;;;13.55;5.97;;;;;;;;;;5063343;28;20032;-59
2021/07/02 02:26:34;;;;;;;20.77;6.72;;;;;;;;;;5061214;28;20044;-60
2021/07/02 02:29:01;;;;;;;21.95;6.38;;;;;;;;;;5063092;28;20044;-60
2021/07/02 02:31:29;;;;;;;21.58;6.18;;;;;;;;;;5055511;28;20040;-59
2021/07/02 02:33:55;;;;;;;15.40;6.22;;;;;;;;;;5061881;28;20070;-60
2021/07/02 02:36:22;;;;;;;18.67;7.15;;;;;;;;;;5057575;28;20103;-60
2021/07/02 02:38:49;;;;;;;14.52;6.78;;;;;;;;;;5062871;28;20052;-60
2021/07/02 02:41:15;;;;;;;18.98;6.35;;;;;;;;;;5061402;28;20133;-60
2021/07/02 02:43:42;;;;;;;17.55;6.75;;;;;;;;;;5063962;28;20049;-60
2021/07/02 02:46:08;;;;;;;19.23;7.13;;;;;;;;;;5062622;28;20048;-59
2021/07/02 02:48:36;;;;;;;21.60;7.95;;;;;;;;;;5063968;28;20045;-60
2021/07/02 02:51:03;;;;;;;19.37;7.70;;;;;;;;;;5058383;28;20048;-60
2021/07/02 02:53:29;;;;;;;19.52;8.05;;;;;;;;;;5064680;28;20065;-60
2021/07/02 02:55:55;;;;;;;19.45;7.82;;;;;;;;;;5059654;28;20040;-60
2021/07/02 02:58:22;;;;;;;19.73;8.38;;;;;;;;;;5082030;28;20125;-60
2021/07/02 03:00:49;;;;;;;19.58;8.55;;;;;;;;;;5082576;28;20036;-60
2021/07/02 03:03:17;;;;;;;20.73;7.88;;;;;;;;;;5058461;28;20064;-60
2021/07/02 03:05:44;;;;;;;23.37;8.57;;;;;;;;;;5079095;28;20043;-60
2021/07/02 03:08:11;;;;;;;24.63;9.37;;;;;;;;;;5084335;28;20300;-60
2021/07/02 03:10:37;;;;;;;22.88;8.02;;;;;;;;;;5075464;28;20064;-60
2021/07/02 03:13:04;;;;;;;22.15;8.35;;;;;;;;;;5059901;28;20101;-60
2021/07/02 03:15:31;;;;;;;18.15;7.70;;;;;;;;;;5062741;28;20106;-59
2021/07/02 03:17:57;;;;;;;23.25;7.85;;;;;;;;;;5058858;28;20114;-59
2021/07/02 03:20:24;;;;;;;23.02;8.13;;;;;;;;;;5063580;28;20058;-59
2021/07/02 03:22:54;;;;;;;17.75;7.55;;;;;;;;;;5066627;28;20072;-60
2021/07/02 03:25:22;;;;;;;20.23;7.97;;;;;;;;;;5083915;28;20100;-59
2021/07/02 03:27:49;;;;;;;20.50;7.50;;;;;;;;;;5072754;28;20037;-60
2021/07/02 03:30:16;;;;;;;23.00;6.80;;;;;;;;;;5065030;28;20036;-61
2021/07/02 03:32:42;;;;;;;19.20;7.32;;;;;;;;;;5062331;28;20118;-59
2021/07/02 03:35:10;;;;;;;22.40;8.00;;;;;;;;;;5057096;28;20100;-60
2021/07/02 03:37:37;;;;;;;17.60;7.07;;;;;;;;;;5079869;28;20044;-59
2021/07/02 03:40:06;;;;;;;15.02;6.88;;;;;;;;;;5102798;28;20036;-60
2021/07/02 03:42:32;;;;;;;16.75;7.32;;;;;;;;;;5085371;28;20101;-59
2021/07/02 03:44:59;;;;;;;24.90;7.63;;;;;;;;;;5062443;28;20044;-59
2021/07/02 03:47:25;;;;;;;18.48;7.18;;;;;;;;;;5084465;28;20097;-60
2021/07/02 03:49:52;;;;;;;17.02;7.22;;;;;;;;;;5075078;28;20043;-60
2021/07/02 03:52:20;;;;;;;16.00;7.30;;;;;;;;;;5081962;28;20067;-59
2021/07/02 03:54:46;;;;;;;19.03;7.27;;;;;;;;;;5067238;28;20113;-59
2021/07/02 03:57:14;;;;;;;21.02;7.72;;;;;;;;;;5064648;28;20032;-60
2021/07/02 03:59:42;;;;;;;16.73;6.82;;;;;;;;;;5062723;28;20032;-60
2021/07/02 04:02:09;;;;;;;17.95;7.38;;;;;;;;;;5065066;28;20040;-60
2021/07/02 04:04:35;;;;;;;22.08;7.72;;;;;;;;;;5066278;28;20046;-59
2021/07/02 04:07:02;;;;;;;17.50;7.45;;;;;;;;;;5081521;28;20092;-60
2021/07/02 04:09:28;;;;;;;18.42;6.68;;;;;;;;;;5080042;28;20044;-59
2021/07/02 04:11:56;;;;;;;20.55;8.13;;;;;;;;;;5078904;28;20083;-59
2021/07/02 04:14:24;;;;;;;19.02;7.75;;;;;;;;;;5073880;28;20125;-59
2021/07/02 04:16:50;;;;;;;20.52;8.38;;;;;;;;;;5080359;28;20032;-60
2021/07/02 04:19:17;;;;;;;25.40;7.78;;;;;;;;;;5080791;28;20044;-60
2021/07/02 04:21:44;;;;;;;19.88;8.27;;;;;;;;;;5084603;28;20055;-59
2021/07/02 04:24:10;;;;;;;20.50;8.45;;;;;;;;;;5085788;28;20040;-60
2021/07/02 04:26:37;;;;;;;24.77;8.50;;;;;;;;;;5076000;28;20098;-59
2021/07/02 04:29:03;;;;;;;23.65;8.70;;;;;;;;;;5079955;28;20051;-59
2021/07/02 04:31:32;;;;;;;20.90;8.38;;;;;;;;;;5077457;28;20127;-59
2021/07/02 04:33:59;;;;;;;19.05;8.23;;;;;;;;;;5080908;28;20044;-58
2021/07/02 04:36:25;;;;;;;21.13;8.48;;;;;;;;;;5076403;28;20048;-58
2021/07/02 04:38:53;;;;;;;21.90;8.85;;;;;;;;;;5081707;28;20044;-58
2021/07/02 04:41:28;;;;;;;23.48;8.52;;;;;;;;;;5091568;28;20058;-58
2021/07/02 04:43:54;;;;;;;24.05;9.18;;;;;;;;;;5085385;28;20097;-58
2021/07/02 04:46:23;;;;;;;18.23;8.30;;;;;;;;;;5068606;28;20052;-58
2021/07/02 04:48:50;;;;;;;22.42;8.55;;;;;;;;;;5064686;28;20044;-58
2021/07/02 04:51:18;;;;;;;22.00;8.48;;;;;;;;;;5061889;28;20043;-58
2021/07/02 04:53:45;;;;;;;21.20;8.50;;;;;;;;;;5064255;28;20033;-58
2021/07/02 04:56:12;;;;;;;23.38;9.13;;;;;;;;;;5061103;28;20036;-58
2021/07/02 04:58:39;;;;;;;24.33;9.43;;;;;;;;;;5063054;28;20040;-58
2021/07/02 05:01:06;;;;;;;26.35;9.15;;;;;;;;;;5064729;28;20043;-58
2021/07/02 05:03:33;;;;;;;19.33;8.23;;;;;;;;;;5084272;28;20040;-58
2021/07/02 05:06:01;;;;;;;21.73;9.55;;;;;;;;;;5080459;28;20112;-58
2021/07/02 05:08:28;;;;;;;18.65;8.70;;;;;;;;;;5064454;28;20029;-58
2021/07/02 05:10:54;;;;;;;22.95;10.65;;;;;;;;;;5080723;28;20110;-58
2021/07/02 05:13:24;;;;;;;22.65;10.63;;;;;;;;;;5076215;28;20110;-58
2021/07/02 05:15:52;;;;;;;20.20;9.73;;;;;;;;;;5073295;28;20051;-58
2021/07/02 05:18:19;;;;;;;20.38;8.75;;;;;;;;;;5065807;28;20060;-58
2021/07/02 05:20:46;;;;;;;26.90;8.95;;;;;;;;;;5070637;28;20091;-58
2021/07/02 05:23:15;;;;;;;23.60;9.30;;;;;;;;;;5064838;28;20036;-58
2021/07/02 05:25:42;;;;;;;17.98;8.65;;;;;;;;;;5080810;28;20036;-58
2021/07/02 05:28:08;;;;;;;22.05;9.63;;;;;;;;;;5065279;28;20200;-58
2021/07/02 05:30:35;;;;;;;23.65;9.73;;;;;;;;;;5071021;28;20092;-58
2021/07/02 05:33:02;;;;;;;21.40;8.65;;;;;;;;;;5067479;28;20215;-58
2021/07/02 05:35:28;;;;;;;23.45;9.63;;;;;;;;;;5069171;28;20059;-58
2021/07/02 05:37:55;;;;;;;25.63;10.32;;;;;;;;;;5066435;28;20051;-58
2021/07/02 05:40:22;;;;;;;26.50;9.05;;;;;;;;;;5067106;28;20040;-58
2021/07/02 05:42:49;;;;;;;24.67;9.17;;;;;;;;;;5067521;28;20031;-58
2021/07/02 05:45:16;;;;;;;22.95;9.63;;;;;;;;;;5069728;28;20296;-58
2021/07/02 05:47:47;;;;;;;19.45;9.40;;;;;;;;;;5063673;28;20052;-58
2021/07/02 05:50:13;;;;;;;19.30;9.02;;;;;;;;;;5087145;28;20059;-58
2021/07/02 05:52:41;;;;;;;22.48;8.82;;;;;;;;;;5068085;28;20051;-58
2021/07/02 05:55:07;;;;;;;25.38;10.07;;;;;;;;;;5074868;28;20051;-58
2021/07/02 05:57:35;;;;;;;25.48;9.60;;;;;;;;;;5069705;28;20106;-58
2021/07/02 06:00:02;;;;;;;22.77;9.57;;;;;;;;;;5057754;28;20068;-58
2021/07/02 06:02:28;;;;;;;23.27;10.02;;;;;;;;;;5074721;28;20036;-58
2021/07/02 06:04:54;;;;;;;22.83;9.32;;;;;;;;;;5049974;28;20040;-59
2021/07/02 06:07:21;;;;;;;25.95;9.60;;;;;;;;;;5068252;28;20052;-58
2021/07/02 06:09:49;;;;;;;25.42;9.90;;;;;;;;;;5049817;28;20041;-58
2021/07/02 06:12:15;;;;;;;19.35;8.52;;;;;;;;;;5055356;28;20059;-59
2021/07/02 06:14:43;;;;;;;19.63;8.85;;;;;;;;;;5050411;28;20037;-59
2021/07/02 06:17:09;;;;;;;24.40;9.13;;;;;;;;;;5064193;28;20039;-59
2021/07/02 06:19:36;;;;;;;24.10;8.70;;;;;;;;;;5081860;28;20044;-58
2021/07/02 06:22:04;;;;;;;26.10;9.07;;;;;;;;;;5066011;28;20169;-59
2021/07/02 06:24:30;;;;;;;23.30;9.20;;;;;;;;;;5062410;28;20126;-59
2021/07/02 06:26:57;;;;;;;22.20;9.25;;;;;;;;;;5049755;28;20047;-59
2021/07/02 06:29:23;;;;;;;22.63;8.93;;;;;;;;;;5045020;28;20055;-59
2021/07/02 06:31:54;;;;;;;24.13;9.85;;;;;;;;;;5103139;28;20043;-59
2021/07/02 06:34:20;;;;;;;22.77;8.00;;;;;;;;;;5083514;28;20116;-58
2021/07/02 06:36:47;;;;;;;22.17;9.35;;;;;;;;;;5064167;28;20122;-58
2021/07/02 06:39:13;;;;;;;20.85;8.68;;;;;;;;;;5066059;28;20052;-59
2021/07/02 06:41:40;;;;;;;22.02;8.48;;;;;;;;;;5062200;28;20175;-58
2021/07/02 06:44:06;;;;;;;21.63;8.93;;;;;;;;;;5066787;28;20044;-58
2021/07/02 06:46:33;;;;;;;24.48;9.23;;;;;;;;;;5062411;28;20052;-58
2021/07/02 06:49:05;;;;;;;24.20;8.77;;;;;;;;;;5064474;28;20044;-59
2021/07/02 06:51:32;;;;;;;22.65;7.90;;;;;;;;;;5071307;28;20036;-59
2021/07/02 06:54:01;;;;;;;26.80;8.23;;;;;;;;;;5044693;28;20037;-58
2021/07/02 06:56:27;;;;;;;20.30;9.15;;;;;;;;;;5052667;28;20036;-58
2021/07/02 06:58:54;;;;;;;23.60;8.90;;;;;;;;;;5098873;28;20044;-59
2021/07/02 07:01:20;;;;;;;21.33;8.88;;;;;;;;;;5054606;28;20129;-59
2021/07/02 07:03:49;;;;;;;30.40;9.05;;;;;;;;;;5055142;28;20040;-58
2021/07/02 07:06:17;;;;;;;21.80;9.35;;;;;;;;;;5078912;28;20048;-59
2021/07/02 07:08:44;;;;;;;24.40;8.60;;;;;;;;;;5066070;28;20102;-59
2021/07/02 07:11:11;;;;;;;15.98;7.75;;;;;;;;;;5052525;28;20052;-59
2021/07/02 07:13:40;;;;;;;21.42;9.45;;;;;;;;;;5062903;28;20037;-60
2021/07/02 07:16:06;;;;;;;25.83;10.07;;;;;;;;;;5043947;28;20032;-59
2021/07/02 07:18:33;;;;;;;18.75;8.30;;;;;;;;;;5050717;28;20054;-60
2021/07/02 07:20:59;;;;;;;21.10;9.75;;;;;;;;;;5066559;28;20132;-59
2021/07/02 07:23:27;;;;;;;23.13;9.20;;;;;;;;;;5078863;28;20101;-59
2021/07/02 07:25:54;;;;;;;23.80;8.77;;;;;;;;;;5067720;28;20036;-59
2021/07/02 07:28:20;;;;;;;19.92;8.18;;;;;;;;;;5081756;28;20040;-59
2021/07/02 07:30:47;;;;;;;24.52;8.25;;;;;;;;;;5103585;28;20040;-59
2021/07/02 07:33:16;;;;;;;18.02;8.13;;;;;;;;;;5062585;28;20032;-59
2021/07/02 07:35:44;;;;;;;;;;;;;;;;;;5046641;28;20314;-59
2021/07/02 07:38:11;;;;;;;17.70;7.43;;;;;;;;;;5076732;28;19972;-59
2021/07/02 07:40:39;;;;;;;25.52;8.95;;;;;;;;;;5059400;28;20124;-59
2021/07/02 07:43:07;;;;;;;23.73;8.63;;;;;;;;;;5041546;28;20117;-59
2021/07/02 07:45:34;;;;;;;22.60;8.57;;;;;;;;;;5045893;28;20037;-59
2021/07/02 07:48:00;;;;;;;22.98;8.02;;;;;;;;;;5043211;28;20033;-59
2021/07/02 07:50:29;;;;;;;20.60;8.07;;;;;;;;;;5046107;28;20146;-59
2021/07/02 07:52:58;;;;;;;22.73;8.98;;;;;;;;;;5042810;28;20052;-59
2021/07/02 07:55:25;;;;;;;23.52;8.55;;;;;;;;;;5053473;28;20043;-59
2021/07/02 07:57:53;;;;;;;22.90;8.57;;;;;;;;;;5065376;28;20056;-59
2021/07/02 08:00:20;;;;;;;19.65;8.23;;;;;;;;;;5085827;28;20068;-59
2021/07/02 08:02:47;;;;;;;17.75;8.20;;;;;;;;;;5081692;28;20036;-59
2021/07/02 08:05:14;;;;;;;19.05;8.30;;;;;;;;;;5065638;28;20037;-59
2021/07/02 08:07:41;;;;;;;25.05;7.35;;;;;;;;;;5064175;28;20085;-59
2021/07/02 08:10:09;;;;;;;21.33;7.95;;;;;;;;;;5068399;28;20124;-59
2021/07/02 08:12:36;;;;;;;20.70;8.05;;;;;;;;;;5065457;28;20047;-59
2021/07/02 08:15:04;;;;;;;15.95;7.72;;;;;;;;;;5062737;28;20060;-60
2021/07/02 08:17:31;;;;;;;19.02;8.70;;;;;;;;;;5089750;28;20046;-60
2021/07/02 08:19:57;;;;;;;27.83;9.90;;;;;;;;;;5070697;28;20052;-60
2021/07/02 08:22:26;;;;;;;19.83;9.23;;;;;;;;;;5082139;28;20044;-59
2021/07/02 08:24:52;;;;;;;23.65;8.43;;;;;;;;;;5080420;28;20051;-59
2021/07/02 08:27:20;;;;;;;14.90;7.30;;;;;;;;;;5065704;28;20056;-60
2021/07/02 08:29:45;;;;;;;16.40;7.20;;;;;;;;;;5058406;28;20032;-59
2021/07/02 08:32:14;;;;;;;16.52;6.80;;;;;;;;;;5077173;28;20033;-59
2021/07/02 08:34:40;;;;;;;13.55;7.13;;;;;;;;;;5076504;28;20117;-59
2021/07/02 08:37:07;;;;;;;22.00;8.00;;;;;;;;;;5080221;28;20032;-59
2021/07/02 08:39:33;;;;;;;19.58;8.38;;;;;;;;;;5072662;28;20049;-60
2021/07/02 08:42:03;;;;;;;20.67;9.02;;;;;;;;;;5063113;28;20037;-59
2021/07/02 08:44:30;;;;;;;21.73;9.52;;;;;;;;;;5057896;28;20065;-59
2021/07/02 08:46:56;;;;;;;17.77;9.20;;;;;;;;;;5062335;28;20037;-60
2021/07/02 08:49:26;;;;;;;21.98;9.13;;;;;;;;;;5061180;28;20155;-58
2021/07/02 08:51:54;;;;;;;20.13;8.52;;;;;;;;;;5056769;28;20094;-59
2021/07/02 08:54:20;;;;;;;19.42;9.13;;;;;;;;;;5060960;28;20148;-59
2021/07/02 08:56:56;;;;;;;23.52;9.25;;;;;;;;;;5056169;28;20122;-59
2021/07/02 08:59:27;;;;;;;24.58;8.52;;;;;;;;;;5062436;28;20037;-59
2021/07/02 09:01:57;;;;;;;22.02;9.60;;;;;;;;;;5056645;28;20040;-60
2021/07/02 09:04:26;;;;;;;22.27;9.25;;;;;;;;;;5058573;28;20056;-59
2021/07/02 09:06:59;;;;;;;20.35;9.75;;;;;;;;;;5056758;28;20043;-59
2021/07/02 09:09:26;;;;;;;22.30;9.45;;;;;;;;;;5060201;28;20052;-60
2021/07/02 09:12:06;;;;;;;22.45;9.40;;;;;;;;;;5040688;28;20051;-59
2021/07/02 09:14:32;;;;;;;22.35;9.27;;;;;;;;;;5061667;28;20040;-59
2021/07/02 09:17:08;;;;;;;22.30;9.20;;;;;;;;;;5058517;28;20056;-59
2021/07/02 09:19:36;;;;;;;21.67;9.93;;;;;;;;;;5061155;28;20039;-59
2021/07/02 09:22:16;;;;;;;22.70;9.98;;;;;;;;;;5057662;28;20045;-60
2021/07/02 09:24:44;;;;;;;17.08;9.00;;;;;;;;;;5061038;28;20141;-59
2021/07/02 09:27:24;;;;;;;22.48;8.95;;;;;;;;;;5057649;28;20045;-60
2021/07/02 09:30:04;;;;;;;21.23;9.20;;;;;;;;;;5061074;28;20041;-59
2021/07/02 09:32:31;;;;;;;25.83;11.70;;;;;;;;;;5056879;28;20029;-59
2021/07/02 09:35:01;;;;;;;33.38;13.23;;;;;;;;;;5060873;28;20067;-60
2021/07/02 09:37:29;;;;;;;28.20;12.35;;;;;;;;;;5057352;28;20048;-60
2021/07/02 09:39:55;;;;;;;29.08;12.20;;;;;;;;;;5058868;28;20057;-59
2021/07/02 09:42:23;;;;;;;26.02;12.48;;;;;;;;;;5057879;28;20044;-60
2021/07/02 09:44:50;;;;;;;;;;;;;;;;;;5060548;28;20036;-59
2021/07/02 09:47:28;;;;;;;28.13;12.32;;;;;;;;;;5057357;28;19960;-60
2021/07/02 09:50:10;;;;;;;25.75;11.75;;;;;;;;;;5047251;28;20029;-60
2021/07/02 09:52:43;;;;;;;27.85;11.85;;;;;;;;;;5040933;28;20044;-59
2021/07/02 09:55:09;;;;;;;27.92;12.25;;;;;;;;;;5060102;28;20167;-59
2021/07/02 09:57:36;;;;;;;25.48;11.23;;;;;;;;;;5059164;28;20044;-60
2021/07/02 10:00:05;;;;;;;28.17;12.13;;;;;;;;;;5064101;28;20037;-59
2021/07/02 10:02:32;;;;;;;34.92;13.13;;;;;;;;;;5060427;28;20021;-60
2021/07/02 10:04:59;;;;;;;27.95;12.07;;;;;;;;;;5063515;28;20117;-60
2021/07/02 10:07:26;;;;;;;31.33;13.00;;;;;;;;;;5062599;28;20049;-60
2021/07/02 10:09:53;;;;;;;30.30;13.52;;;;;;;;;;5068651;28;20044;-59
2021/07/02 10:12:21;;;;;;;31.33;12.07;;;;;;;;;;5059837;28;20049;-60
2021/07/02 10:14:49;;;;;;;29.23;12.77;;;;;;;;;;5057417;28;20293;-59
2021/07/02 10:17:16;;;;;;;29.95;13.85;;;;;;;;;;5066471;28;20104;-60
2021/07/02 10:19:43;;;;;;;31.13;13.10;;;;;;;;;;5061143;28;20139;-60
2021/07/02 10:22:09;;;;;;;28.38;12.38;;;;;;;;;;5064327;28;20056;-59
2021/07/02 10:24:37;;;;;;;27.50;11.18;;;;;;;;;;5040959;28;20061;-60
2021/07/02 10:27:05;;;;;;;24.80;10.75;;;;;;;;;;5042565;28;20037;-59
2021/07/02 10:29:32;;;;;;;24.48;9.85;;;;;;;;;;5063247;28;20045;-60
2021/07/02 10:31:59;;;;;;;23.25;10.70;;;;;;;;;;5042986;28;20063;-59
2021/07/02 10:34:27;;;;;;;24.27;10.80;;;;;;;;;;5035513;28;20188;-59
2021/07/02 10:36:53;;;;;;;22.98;10.32;;;;;;;;;;5030390;28;20037;-59
2021/07/02 10:39:30;;;;;;;24.38;10.73;;;;;;;;;;5043446;28;20040;-60
2021/07/02 10:42:06;;;;;;;24.80;11.00;;;;;;;;;;5056232;28;20072;-60
2021/07/02 10:44:32;;;;;;;23.75;10.32;;;;;;;;;;5039592;28;20053;-59
2021/07/02 10:47:02;;;;;;;20.15;9.63;;;;;;;;;;5043175;28;20068;-59
2021/07/02 10:49:36;;;;;;;23.27;8.52;;;;;;;;;;5039168;28;20037;-60
2021/07/02 10:52:18;;;;;;;24.05;9.68;;;;;;;;;;5043033;28;20041;-59
2021/07/02 10:54:44;;;;;;;21.35;9.15;;;;;;;;;;5037531;28;20413;-59
2021/07/02 10:57:19;;;;;;;19.95;8.18;;;;;;;;;;5042527;28;20103;-59
2021/07/02 11:00:04;;;;;;;20.20;7.82;;;;;;;;;;5023857;28;20046;-60
2021/07/02 11:02:31;;;;;;;24.50;9.27;;;;;;;;;;5042085;28;20122;-59
2021/07/02 11:04:57;;;;;;;19.95;7.18;;;;;;;;;;5038730;28;20029;-60
2021/07/02 11:07:40;;;;;;;22.05;8.43;;;;;;;;;;5045444;28;20115;-59
2021/07/02 11:10:09;;;;;;;17.90;8.02;;;;;;;;;;5035471;28;20048;-59
2021/07/02 11:12:38;;;;;;;20.85;9.07;;;;;;;;;;5041865;28;20151;-59
2021/07/02 11:15:14;;;;;;;17.90;7.32;;;;;;;;;;5041835;28;20041;-60
2021/07/02 11:17:41;;;;;;;18.23;7.55;;;;;;;;;;5039951;28;20037;-60
2021/07/02 11:20:27;;;;;;;14.85;7.07;;;;;;;;;;5033853;28;20038;-59
2021/07/02 11:22:57;;;;;;;16.80;7.32;;;;;;;;;;5033753;28;20104;-60
2021/07/02 11:25:25;;;;;;;17.85;7.75;;;;;;;;;;5061786;28;20041;-60
2021/07/02 11:28:01;;;;;;;19.13;8.07;;;;;;;;;;5045199;28;20184;-60
2021/07/02 11:30:34;;;;;;;17.42;7.30;;;;;;;;;;5043948;28;20033;-59
2021/07/02 11:33:02;;;;;;;19.35;8.23;;;;;;;;;;5055255;28;20076;-60
2021/07/02 11:35:29;;;;;;;19.88;8.23;;;;;;;;;;5023926;28;20049;-60
2021/07/02 11:38:03;;;;;;;21.23;8.90;;;;;;;;;;5034572;28;20053;-60
2021/07/02 11:40:31;;;;;;;17.23;8.15;;;;;;;;;;5043377;28;20118;-59
2021/07/02 11:43:04;;;;;;;19.65;9.02;;;;;;;;;;5039368;28;20099;-60
2021/07/02 11:45:41;;;;;;;21.30;8.98;;;;;;;;;;5043972;28;20082;-60
2021/07/02 11:48:07;;;;;;;21.58;8.85;;;;;;;;;;5039980;28;20041;-60
2021/07/02 11:50:41;;;;;;;22.45;9.80;;;;;;;;;;5043005;28;20080;-59
2021/07/02 11:53:08;;;;;;;22.58;10.25;;;;;;;;;;5038029;28;20045;-60
2021/07/02 11:55:34;;;;;;;28.73;11.30;;;;;;;;;;5043703;28;20052;-59
2021/07/02 11:58:15;;;;;;;26.45;10.27;;;;;;;;;;5038774;28;20045;-60
2021/07/02 12:00:41;;;;;;;23.42;9.63;;;;;;;;;;5041622;28;20047;-60
2021/07/02 12:03:08;;;;;;;23.45;10.57;;;;;;;;;;5010192;28;20091;-60
2021/07/02 12:05:35;;;;;;;22.67;10.32;;;;;;;;;;5021527;28;20054;-59
2021/07/02 12:08:02;;;;;;;24.55;9.25;;;;;;;;;;5025541;28;20095;-60
2021/07/02 12:10:29;;;;;;;25.35;10.18;;;;;;;;;;5041806;28;20036;-60
2021/07/02 12:13:05;;;;;;;21.08;10.25;;;;;;;;;;5054672;28;20097;-60
2021/07/02 12:15:33;;;;;;;26.60;11.07;;;;;;;;;;5041183;28;20041;-60
2021/07/02 12:18:00;;;;;;;23.00;10.45;;;;;;;;;;5034007;28;20059;-60
2021/07/02 12:20:27;;;;;;;27.10;11.48;;;;;;;;;;5023249;28;20037;-60
2021/07/02 12:23:00;;;;;;;22.10;9.63;;;;;;;;;;5019712;28;20086;-60
2021/07/02 12:25:27;;;;;;;23.80;10.05;;;;;;;;;;5021294;28;20096;-60
2021/07/02 12:27:57;;;;;;;25.92;10.52;;;;;;;;;;5019495;28;20054;-60
2021/07/02 12:30:23;;;;;;;19.70;9.95;;;;;;;;;;5041518;28;20065;-60
2021/07/02 12:32:53;;;;;;;26.33;9.98;;;;;;;;;;5043814;28;20024;-60
2021/07/02 12:35:20;;;;;;;18.77;8.90;;;;;;;;;;5071645;28;20125;-60
2021/07/02 12:37:46;;;;;;;20.33;9.40;;;;;;;;;;5044072;28;20118;-60
2021/07/02 12:40:14;;;;;;;17.73;8.25;;;;;;;;;;5050104;28;20051;-60
2021/07/02 12:42:44;;;;;;;19.05;8.35;;;;;;;;;;5045949;28;20044;-60
2021/07/02 12:45:12;;;;;;;17.23;8.73;;;;;;;;;;5041071;28;20052;-60
2021/07/02 12:47:39;;;;;;;17.42;8.40;;;;;;;;;;5045061;28;20072;-61
2021/07/02 12:50:12;;;;;;;16.20;7.45;;;;;;;;;;5052004;28;20052;-60
2021/07/02 12:55:25;;;;;;;17.83;9.10;;;;;;;;;;5059568;28;20116;-60
2021/07/02 12:57:55;;;;;;;24.05;8.85;;;;;;;;;;5064946;28;20052;-60
2021/07/02 13:00:26;;;;;;;20.73;9.07;;;;;;;;;;5079550;28;20048;-60
2021/07/02 13:02:55;;;;;;;20.45;8.55;;;;;;;;;;5082656;28;20353;-60
2021/07/02 13:05:31;;;;;;;16.17;7.35;;;;;;;;;;5060885;28;20068;-60
2021/07/02 13:07:58;;;;;;;21.02;8.95;;;;;;;;;;5064987;28;20055;-60
2021/07/02 13:10:30;;;;;;;19.13;8.23;;;;;;;;;;5043436;28;20041;-60
2021/07/02 13:13:04;;;;;;;17.90;8.60;;;;;;;;;;5077194;28;20130;-61
2021/07/02 13:15:30;;;;;;;17.67;8.02;;;;;;;;;;5080957;28;20071;-60
2021/07/02 13:17:57;;;;;;;20.90;8.15;;;;;;;;;;5084850;28;20036;-61
2021/07/02 13:20:24;;;;;;;18.17;8.10;;;;;;;;;;5079937;28;20140;-60
2021/07/02 13:23:03;;;;;;;17.05;7.82;;;;;;;;;;5063545;28;20063;-60
2021/07/02 13:25:32;;;;;;;20.65;8.20;;;;;;;;;;5038549;28;20057;-60
2021/07/02 13:27:59;;;;;;;19.23;8.48;;;;;;;;;;5043069;28;20021;-61
2021/07/02 13:30:27;;;;;;;15.77;7.55;;;;;;;;;;5043536;28;20033;-60
2021/07/02 13:33:03;;;;;;;21.00;7.93;;;;;;;;;;5060227;28;20040;-61
2021/07/02 13:35:29;;;;;;;18.52;8.38;;;;;;;;;;5062718;28;20032;-61
2021/07/02 13:37:56;;;;;;;23.85;9.90;;;;;;;;;;5078267;28;20055;-60
2021/07/02 13:40:37;;;;;;;23.52;8.93;;;;;;;;;;5064231;28;20036;-61
2021/07/02 13:43:06;;;;;;;20.83;9.73;;;;;;;;;;5058322;28;20071;-60
2021/07/02 13:45:33;;;;;;;21.20;8.43;;;;;;;;;;5087038;28;20044;-61
2021/07/02 13:48:07;;;;;;;23.05;9.32;;;;;;;;;;5092686;28;20044;-61
2021/07/02 13:50:34;;;;;;;18.95;8.60;;;;;;;;;;5082794;28;20154;-60
2021/07/02 13:53:00;;;;;;;19.42;8.35;;;;;;;;;;5061533;28;20045;-61
2021/07/02 13:55:27;;;;;;;21.05;8.93;;;;;;;;;;5063937;28;20060;-61
2021/07/02 13:57:53;;;;;;;24.13;9.95;;;;;;;;;;5060097;28;20056;-60
2021/07/02 14:00:21;;;;;;;21.90;8.95;;;;;;;;;;5062476;28;20117;-60
2021/07/02 14:02:50;;;;;;;20.83;9.70;;;;;;;;;;5066389;28;20044;-60
2021/07/02 14:05:19;;;;;;;21.75;9.60;;;;;;;;;;5081789;28;20044;-60
2021/07/02 14:07:45;;;;;;;19.58;9.27;;;;;;;;;;5066970;28;20035;-60
2021/07/02 14:10:12;;;;;;;23.40;9.18;;;;;;;;;;5070166;28;20129;-60
2021/07/02 14:12:38;;;;;;;22.23;10.88;;;;;;;;;;5064553;28;20044;-60
2021/07/02 14:15:05;;;;;;;21.52;9.90;;;;;;;;;;5072600;28;20041;-61
2021/07/02 14:17:35;;;;;;;18.55;9.95;;;;;;;;;;5079823;28;20046;-60
2021/07/02 14:20:01;;;;;;;21.13;9.35;;;;;;;;;;5101066;28;20068;-60
2021/07/02 14:22:27;;;;;;;20.08;9.60;;;;;;;;;;5100099;28;20051;-60
2021/07/02 14:24:54;;;;;;;19.08;8.85;;;;;;;;;;5081991;28;20054;-60
2021/07/02 14:27:22;;;;;;;23.70;9.27;;;;;;;;;;5084081;28;20047;-60
2021/07/02 14:29:49;;;;;;;22.85;9.38;;;;;;;;;;5078742;28;20043;-61
2021/07/02 14:32:16;;;;;;;21.65;10.32;;;;;;;;;;5082487;28;20024;-61
2021/07/02 14:34:43;;;;;;;20.20;9.90;;;;;;;;;;5065189;28;20094;-60
2021/07/02 14:37:10;;;;;;;21.33;9.52;;;;;;;;;;5065828;28;20052;-60